< < Back
Terminal Aerodrome Forecast


Current Version              Previous Versions:   1  2  3  4  5  6  7  8  9  

Terminal Aerodrome Forecast

295
FTUS44 KMRX 010805 AAA
TAFTYS
TAF AMD
KTYS 010805Z 0108/0206 VRB03KT P6SM BKN080
      TEMPO 0108/0112 4SM BR
     FM011400 24008KT P6SM SCT040
     FM020000 VRB03KT P6SM SCT250=



Latest METAR

783
SAUS80 KWBC 011200 RRE
MTRTYS
METAR KTYS 011153Z 00000KT 10SM FEW050 SCT120 OVC250 22/21 A3013 RMK AO2
SLP193 70003 T02170211 10222 20211 53005


USA.gov is the U.S. government's official web portal to all federal, state and local government web resources and services.